Time;durP1;ratioP1;P1;durP2;ratioP2;P2;SDS_P1;SDS_P2;PMS_P1;PMS_P2;Temp;Humidity;BMP_temperature;BMP_pressure;BME280_temperature;BME280_humidity;BME280_pressure;Samples;Min_cycle;Max_cycle;Signal;HPM_P1;HPM_P2
2022/09/02 00:00:07;;;;;;;7.45;3.67;;;;;;;;;;4916896;28;20046;-71
2022/09/02 00:02:33;;;;;;;4.60;2.92;;;;;;;;;;4910391;28;20562;-71
2022/09/02 00:04:59;;;;;;;6.28;2.53;;;;;;;;;;4909147;28;20036;-70
2022/09/02 00:07:25;;;;;;;3.75;2.60;;;;;;;;;;4917601;28;20140;-71
2022/09/02 00:09:52;;;;;;;4.30;2.78;;;;;;;;;;4917790;28;20071;-71
2022/09/02 00:12:18;;;;;;;6.57;2.83;;;;;;;;;;4920201;28;20105;-71
2022/09/02 00:14:44;;;;;;;7.40;3.00;;;;;;;;;;4929991;28;20054;-71
2022/09/02 00:17:10;;;;;;;6.47;2.78;;;;;;;;;;4917608;28;20062;-71
2022/09/02 00:19:37;;;;;;;14.25;3.38;;;;;;;;;;4919449;28;20112;-70
2022/09/02 00:22:03;;;;;;;5.53;2.95;;;;;;;;;;4928270;28;20056;-70
2022/09/02 00:24:29;;;;;;;8.27;2.72;;;;;;;;;;4918176;28;20428;-71
2022/09/02 00:26:56;;;;;;;8.18;2.67;;;;;;;;;;4916234;28;20123;-71
2022/09/02 00:29:22;;;;;;;8.65;3.67;;;;;;;;;;4916281;28;20048;-71
2022/09/02 00:31:48;;;;;;;5.40;2.67;;;;;;;;;;4916831;28;20565;-71
2022/09/02 00:34:14;;;;;;;4.90;2.55;;;;;;;;;;4928423;28;20052;-71
2022/09/02 00:36:40;;;;;;;9.95;3.65;;;;;;;;;;4917591;28;20040;-71
2022/09/02 00:39:07;;;;;;;4.57;2.88;;;;;;;;;;4918513;28;20044;-71
2022/09/02 00:41:34;;;;;;;9.18;4.22;;;;;;;;;;4919081;28;20039;-71
2022/09/02 00:44:02;;;;;;;10.95;4.00;;;;;;;;;;4927634;28;20493;-71
2022/09/02 00:46:29;;;;;;;13.88;4.70;;;;;;;;;;4926205;28;20683;-71
2022/09/02 00:48:58;;;;;;;26.98;7.30;;;;;;;;;;4917639;28;20102;-70
2022/09/02 00:51:25;;;;;;;13.75;5.25;;;;;;;;;;4916730;28;20048;-71
2022/09/02 00:53:52;;;;;;;8.43;4.47;;;;;;;;;;4915539;28;20047;-71
2022/09/02 00:56:19;;;;;;;8.13;4.85;;;;;;;;;;4915556;28;20080;-71
2022/09/02 00:58:46;;;;;;;5.63;4.68;;;;;;;;;;4919502;28;20054;-71
2022/09/02 01:01:12;;;;;;;9.02;4.32;;;;;;;;;;4914064;28;20550;-71
2022/09/02 01:03:40;;;;;;;9.15;5.05;;;;;;;;;;4911479;28;20063;-71
2022/09/02 01:06:07;;;;;;;12.20;4.82;;;;;;;;;;4931500;28;20048;-71
2022/09/02 01:08:34;;;;;;;7.97;4.72;;;;;;;;;;4910301;28;20074;-70
2022/09/02 01:11:01;;;;;;;5.47;3.65;;;;;;;;;;4916257;28;20249;-70
2022/09/02 01:13:28;;;;;;;6.13;3.42;;;;;;;;;;4917002;28;20102;-71
2022/09/02 01:15:57;;;;;;;7.18;4.15;;;;;;;;;;4928351;28;20085;-69
2022/09/02 01:18:28;;;;;;;5.28;3.75;;;;;;;;;;4916909;28;20513;-69
2022/09/02 01:20:54;;;;;;;10.60;4.75;;;;;;;;;;4927653;28;20048;-69
2022/09/02 01:23:20;;;;;;;6.55;3.92;;;;;;;;;;4932705;28;20666;-69
2022/09/02 01:25:46;;;;;;;7.25;4.05;;;;;;;;;;4911766;28;20048;-69
2022/09/02 01:28:14;;;;;;;6.88;3.50;;;;;;;;;;4910126;28;20135;-69
2022/09/02 01:30:42;;;;;;;6.75;4.05;;;;;;;;;;4909201;28;20123;-69
2022/09/02 01:33:08;;;;;;;7.38;3.38;;;;;;;;;;4925470;28;20118;-69
2022/09/02 01:35:35;;;;;;;5.57;3.63;;;;;;;;;;4914921;28;20538;-70
2022/09/02 01:38:01;;;;;;;6.13;3.65;;;;;;;;;;4926569;28;20044;-69
2022/09/02 01:40:28;;;;;;;9.25;2.97;;;;;;;;;;4905031;28;20058;-69
2022/09/02 01:42:58;;;;;;;4.75;3.13;;;;;;;;;;4915312;28;20041;-69
2022/09/02 01:45:24;;;;;;;7.55;3.10;;;;;;;;;;4912965;28;20112;-69
2022/09/02 01:47:50;;;;;;;4.63;3.53;;;;;;;;;;4917249;28;20051;-69
2022/09/02 01:50:17;;;;;;;5.50;3.25;;;;;;;;;;4910586;28;20050;-69
2022/09/02 01:52:43;;;;;;;5.10;3.75;;;;;;;;;;4915932;28;20130;-69
2022/09/02 01:55:09;;;;;;;5.78;3.10;;;;;;;;;;4925499;28;20051;-69
2022/09/02 01:57:35;;;;;;;5.07;3.30;;;;;;;;;;4930124;28;20052;-69
2022/09/02 02:00:03;;;;;;;5.07;3.00;;;;;;;;;;4928920;28;20522;-69
2022/09/02 02:02:30;;;;;;;5.78;3.22;;;;;;;;;;4931717;28;20131;-69
2022/09/02 02:04:56;;;;;;;6.45;3.22;;;;;;;;;;4918046;28;20056;-69
2022/09/02 02:07:24;;;;;;;4.10;3.40;;;;;;;;;;4918388;28;20121;-69
2022/09/02 02:09:50;;;;;;;7.18;4.07;;;;;;;;;;4919560;28;20047;-69
2022/09/02 02:12:16;;;;;;;6.05;4.22;;;;;;;;;;4919220;28;20055;-69
2022/09/02 02:14:43;;;;;;;6.38;3.55;;;;;;;;;;4929624;28;20087;-68
2022/09/02 02:17:09;;;;;;;11.75;4.97;;;;;;;;;;4920513;28;20048;-69
2022/09/02 02:19:35;;;;;;;5.93;4.13;;;;;;;;;;4929610;28;20039;-70
2022/09/02 02:22:01;;;;;;;7.43;4.72;;;;;;;;;;4915412;28;20139;-69
2022/09/02 02:24:28;;;;;;;6.75;4.40;;;;;;;;;;4911364;28;20056;-69
2022/09/02 02:26:54;;;;;;;6.38;4.18;;;;;;;;;;4918993;28;20102;-70
2022/09/02 02:29:20;;;;;;;9.15;4.78;;;;;;;;;;4918584;28;20068;-69
2022/09/02 02:31:46;;;;;;;5.25;4.20;;;;;;;;;;4911465;28;20908;-69
2022/09/02 02:34:12;;;;;;;7.68;4.25;;;;;;;;;;4917008;28;20071;-69
2022/09/02 02:36:38;;;;;;;5.07;3.95;;;;;;;;;;4912525;28;20044;-69
2022/09/02 02:39:06;;;;;;;4.95;4.25;;;;;;;;;;4928260;28;20041;-69
2022/09/02 02:41:32;;;;;;;6.15;4.30;;;;;;;;;;4914123;28;20043;-69
2022/09/02 02:43:58;;;;;;;5.25;3.72;;;;;;;;;;4909693;28;20548;-69
2022/09/02 02:46:25;;;;;;;9.75;3.88;;;;;;;;;;4914612;28;20574;-69
2022/09/02 02:48:51;;;;;;;6.82;3.28;;;;;;;;;;4918776;28;20612;-69
2022/09/02 02:51:17;;;;;;;6.15;4.65;;;;;;;;;;4911762;28;20036;-69
2022/09/02 02:53:43;;;;;;;5.90;4.43;;;;;;;;;;4929725;28;20678;-69
2022/09/02 02:56:10;;;;;;;7.18;5.05;;;;;;;;;;4927628;28;20613;-72
2022/09/02 02:58:36;;;;;;;6.97;5.00;;;;;;;;;;4918298;28;20134;-69
2022/09/02 03:01:03;;;;;;;6.90;4.93;;;;;;;;;;4916730;28;20051;-69
2022/09/02 03:03:30;;;;;;;7.68;4.50;;;;;;;;;;4921253;28;20813;-69
2022/09/02 03:05:56;;;;;;;7.68;5.38;;;;;;;;;;4917367;28;20158;-69
2022/09/02 03:08:25;;;;;;;6.57;5.03;;;;;;;;;;4915466;28;20673;-69
2022/09/02 03:10:53;;;;;;;8.32;5.63;;;;;;;;;;4928786;28;20509;-69
2022/09/02 03:13:20;;;;;;;7.10;5.45;;;;;;;;;;4930255;28;20548;-69
2022/09/02 03:15:46;;;;;;;7.93;5.32;;;;;;;;;;4918683;28;20089;-69
2022/09/02 03:18:13;;;;;;;7.40;5.22;;;;;;;;;;4930081;28;20466;-69
2022/09/02 03:20:40;;;;;;;9.20;5.80;;;;;;;;;;4915676;28;20144;-70
2022/09/02 03:23:07;;;;;;;10.48;7.05;;;;;;;;;;4931135;28;20087;-69
2022/09/02 03:25:34;;;;;;;7.97;5.60;;;;;;;;;;4931448;28;20123;-69
2022/09/02 03:28:00;;;;;;;8.05;6.30;;;;;;;;;;4913924;28;20126;-69
2022/09/02 03:30:27;;;;;;;10.73;6.28;;;;;;;;;;4931043;28;20040;-69
2022/09/02 03:32:58;;;;;;;8.00;5.45;;;;;;;;;;4930213;28;20059;-69
2022/09/02 03:35:24;;;;;;;24.52;8.18;;;;;;;;;;4930842;28;20050;-69
2022/09/02 03:37:51;;;;;;;8.45;5.40;;;;;;;;;;4930011;28;20095;-70
2022/09/02 03:40:18;;;;;;;11.57;5.53;;;;;;;;;;4921904;28;20200;-69
2022/09/02 03:42:45;;;;;;;7.93;6.22;;;;;;;;;;4929140;28;20048;-69
2022/09/02 03:45:13;;;;;;;11.27;6.57;;;;;;;;;;4931308;28;20248;-69
2022/09/02 03:47:43;;;;;;;8.10;5.55;;;;;;;;;;4926487;28;20080;-69
2022/09/02 03:50:10;;;;;;;7.03;4.87;;;;;;;;;;4929100;28;20044;-70
2022/09/02 03:52:36;;;;;;;7.80;5.80;;;;;;;;;;4930126;28;20051;-69
2022/09/02 03:55:03;;;;;;;8.18;5.72;;;;;;;;;;4917803;28;20047;-70
2022/09/02 03:57:29;;;;;;;10.35;6.35;;;;;;;;;;4915682;28;20040;-70
2022/09/02 03:59:56;;;;;;;7.90;4.80;;;;;;;;;;4917038;28;20044;-70
2022/09/02 04:02:23;;;;;;;11.45;6.68;;;;;;;;;;4916009;28;20060;-69
2022/09/02 04:04:49;;;;;;;12.90;6.20;;;;;;;;;;4927441;28;20050;-69
2022/09/02 04:07:15;;;;;;;9.32;5.70;;;;;;;;;;4928231;28;20047;-69
2022/09/02 04:09:41;;;;;;;7.90;5.60;;;;;;;;;;4913691;28;20569;-69
2022/09/02 04:12:07;;;;;;;8.75;5.70;;;;;;;;;;4929852;28;20055;-70
2022/09/02 04:14:33;;;;;;;10.13;6.95;;;;;;;;;;4929609;28;20987;-69
2022/09/02 04:16:59;;;;;;;7.72;6.05;;;;;;;;;;4916305;28;20045;-69
2022/09/02 04:19:25;;;;;;;10.75;6.35;;;;;;;;;;4917850;28;20051;-69
2022/09/02 04:21:52;;;;;;;10.63;5.60;;;;;;;;;;4928436;28;20445;-70
2022/09/02 04:24:19;;;;;;;8.00;6.45;;;;;;;;;;4929088;28;20050;-69
2022/09/02 04:26:45;;;;;;;9.73;6.40;;;;;;;;;;4918163;28;20102;-69
2022/09/02 04:29:11;;;;;;;10.35;6.32;;;;;;;;;;4928462;28;20044;-69
2022/09/02 04:31:37;;;;;;;10.35;6.20;;;;;;;;;;4928909;28;20999;-69
2022/09/02 04:34:03;;;;;;;8.70;6.18;;;;;;;;;;4916706;28;20769;-69
2022/09/02 04:36:30;;;;;;;8.20;6.25;;;;;;;;;;4915164;28;20122;-69
2022/09/02 04:38:57;;;;;;;7.10;5.03;;;;;;;;;;4908064;28;20043;-69
2022/09/02 04:41:24;;;;;;;7.75;5.75;;;;;;;;;;4928487;28;20174;-69
2022/09/02 04:43:51;;;;;;;10.35;6.70;;;;;;;;;;4909752;28;20036;-69
2022/09/02 04:46:17;;;;;;;11.63;6.40;;;;;;;;;;4915979;28;20035;-69
2022/09/02 04:48:44;;;;;;;9.00;6.18;;;;;;;;;;4915456;28;20073;-69
2022/09/02 04:51:12;;;;;;;9.85;6.13;;;;;;;;;;4917157;28;20048;-69
2022/09/02 04:53:39;;;;;;;9.88;6.65;;;;;;;;;;4928348;28;20044;-70
2022/09/02 04:56:05;;;;;;;11.95;6.57;;;;;;;;;;4909288;28;20040;-69
2022/09/02 04:58:31;;;;;;;10.02;6.85;;;;;;;;;;4916812;28;20169;-69
2022/09/02 05:00:58;;;;;;;10.57;6.20;;;;;;;;;;4909102;28;20028;-69
2022/09/02 05:03:25;;;;;;;9.50;6.50;;;;;;;;;;4913856;28;20048;-69
2022/09/02 05:06:01;;;;;;;15.02;6.95;;;;;;;;;;4910578;28;20423;-70
2022/09/02 05:08:27;;;;;;;9.02;5.95;;;;;;;;;;4928297;28;20099;-69
2022/09/02 05:10:53;;;;;;;8.02;6.18;;;;;;;;;;4928558;28;20071;-68
2022/09/02 05:13:20;;;;;;;10.25;6.97;;;;;;;;;;4914742;28;20063;-69
2022/09/02 05:15:46;;;;;;;8.27;6.60;;;;;;;;;;4915311;28;20046;-69
2022/09/02 05:18:12;;;;;;;8.63;6.15;;;;;;;;;;4913786;28;20058;-71
2022/09/02 05:20:39;;;;;;;8.32;5.95;;;;;;;;;;4913634;28;20158;-71
2022/09/02 05:23:05;;;;;;;8.52;6.32;;;;;;;;;;4915828;28;20236;-70
2022/09/02 05:25:31;;;;;;;9.23;6.35;;;;;;;;;;4928455;28;20046;-73
2022/09/02 05:27:57;;;;;;;8.63;6.15;;;;;;;;;;4915999;28;20121;-75
2022/09/02 05:30:24;;;;;;;9.70;6.65;;;;;;;;;;4915719;28;20142;-73
2022/09/02 05:32:50;;;;;;;9.63;6.45;;;;;;;;;;4917782;28;20043;-72
2022/09/02 05:35:16;;;;;;;7.63;5.60;;;;;;;;;;4913466;28;20044;-72
2022/09/02 05:37:42;;;;;;;9.50;6.80;;;;;;;;;;4916067;28;20048;-72
2022/09/02 05:40:11;;;;;;;10.38;6.10;;;;;;;;;;4916725;28;20621;-71
2022/09/02 05:42:37;;;;;;;8.77;6.05;;;;;;;;;;4917076;28;20110;-72
2022/09/02 05:45:03;;;;;;;8.15;6.50;;;;;;;;;;4913222;28;20147;-71
2022/09/02 05:47:29;;;;;;;9.20;6.70;;;;;;;;;;4921966;28;20043;-72
2022/09/02 05:49:55;;;;;;;9.23;5.97;;;;;;;;;;4915077;28;20147;-71
2022/09/02 05:52:21;;;;;;;10.25;5.75;;;;;;;;;;4931488;28;20131;-72
2022/09/02 05:54:48;;;;;;;9.80;6.32;;;;;;;;;;4931144;28;20460;-72
2022/09/02 05:57:16;;;;;;;11.25;6.65;;;;;;;;;;4920230;28;20040;-71
2022/09/02 05:59:43;;;;;;;11.52;6.07;;;;;;;;;;4914642;28;20367;-72
2022/09/02 06:02:10;;;;;;;9.80;5.97;;;;;;;;;;4911104;28;20040;-71
2022/09/02 06:04:37;;;;;;;9.43;6.55;;;;;;;;;;4919845;28;20050;-71
2022/09/02 06:07:03;;;;;;;8.55;5.90;;;;;;;;;;4923060;28;20044;-72
2022/09/02 06:09:29;;;;;;;9.25;6.70;;;;;;;;;;4913711;28;20048;-72
2022/09/02 06:11:56;;;;;;;9.43;6.20;;;;;;;;;;4931373;28;20036;-72
2022/09/02 06:14:26;;;;;;;9.75;7.13;;;;;;;;;;4918767;28;20136;-72
2022/09/02 06:16:56;;;;;;;9.00;7.18;;;;;;;;;;4909792;28;20480;-74
2022/09/02 06:19:25;;;;;;;9.15;6.07;;;;;;;;;;4927156;28;20052;-76
2022/09/02 06:21:54;;;;;;;9.13;6.53;;;;;;;;;;4909451;28;20056;-72
2022/09/02 06:24:20;;;;;;;9.18;6.78;;;;;;;;;;4913359;28;20134;-73
2022/09/02 06:26:46;;;;;;;10.18;5.82;;;;;;;;;;4913619;28;20504;-73
2022/09/02 06:29:13;;;;;;;11.10;5.70;;;;;;;;;;4920055;28;20048;-74
2022/09/02 06:31:43;;;;;;;10.65;6.28;;;;;;;;;;4929914;28;20076;-72
2022/09/02 06:34:11;;;;;;;10.60;7.03;;;;;;;;;;4913637;28;20047;-73
2022/09/02 06:36:37;;;;;;;9.82;6.65;;;;;;;;;;4917732;28;20051;-73
2022/09/02 06:39:03;;;;;;;11.85;7.47;;;;;;;;;;4911540;28;20051;-73
2022/09/02 06:41:32;;;;;;;9.25;6.50;;;;;;;;;;4912220;28;20051;-73
2022/09/02 06:43:59;;;;;;;11.27;6.50;;;;;;;;;;4908627;28;20537;-73
2022/09/02 06:46:27;;;;;;;11.40;6.65;;;;;;;;;;4909436;28;20939;-79
2022/09/02 06:48:53;;;;;;;9.40;6.47;;;;;;;;;;4917700;28;20059;-74
2022/09/02 06:51:20;;;;;;;11.45;7.18;;;;;;;;;;4914152;28;20040;-73
2022/09/02 06:53:46;;;;;;;12.82;6.90;;;;;;;;;;4914335;28;20492;-73
2022/09/02 06:56:12;;;;;;;16.33;7.65;;;;;;;;;;4927666;28;20047;-73
2022/09/02 06:58:38;;;;;;;12.57;7.90;;;;;;;;;;4915920;28;20080;-74
2022/09/02 07:01:04;;;;;;;12.82;7.32;;;;;;;;;;4912370;28;20070;-73
2022/09/02 07:06:15;;;;;;;12.00;7.45;;;;;;;;;;4927447;28;20044;-73
2022/09/02 07:08:43;;;;;;;29.60;10.00;;;;;;;;;;4916083;28;20524;-74
2022/09/02 07:11:19;;;;;;;13.35;8.30;;;;;;;;;;4911820;28;20560;-75
2022/09/02 07:13:49;;;;;;;10.50;7.03;;;;;;;;;;4912065;28;20097;-77
2022/09/02 07:16:15;;;;;;;12.55;6.20;;;;;;;;;;4913584;28;20097;-73
2022/09/02 07:18:42;;;;;;;10.43;7.43;;;;;;;;;;4927887;28;20109;-78
2022/09/02 07:21:10;;;;;;;14.43;7.70;;;;;;;;;;4909011;28;20446;-72
2022/09/02 07:23:36;;;;;;;12.63;7.85;;;;;;;;;;4914380;28;20123;-73
2022/09/02 07:26:02;;;;;;;9.48;7.32;;;;;;;;;;4926688;28;20046;-73
2022/09/02 07:28:28;;;;;;;10.88;7.32;;;;;;;;;;4927953;28;20262;-73
2022/09/02 07:30:54;;;;;;;11.93;7.65;;;;;;;;;;4910634;28;20176;-73
2022/09/02 07:33:21;;;;;;;11.60;7.95;;;;;;;;;;4915979;28;20039;-73
2022/09/02 07:35:48;;;;;;;9.40;6.95;;;;;;;;;;4916265;28;20068;-74
2022/09/02 07:38:14;;;;;;;8.52;6.60;;;;;;;;;;4928677;28;20183;-74
2022/09/02 07:40:41;;;;;;;9.18;7.00;;;;;;;;;;4916812;28;20052;-72
2022/09/02 07:43:08;;;;;;;10.98;7.28;;;;;;;;;;4930360;28;20051;-72
2022/09/02 07:45:35;;;;;;;12.63;7.93;;;;;;;;;;4915283;28;20051;-73
2022/09/02 07:48:01;;;;;;;11.40;7.20;;;;;;;;;;4917720;28;20081;-73
2022/09/02 07:50:28;;;;;;;11.15;7.35;;;;;;;;;;4916088;28;20052;-72
2022/09/02 07:52:55;;;;;;;15.10;8.07;;;;;;;;;;4929381;28;20086;-73
2022/09/02 07:55:22;;;;;;;13.95;7.75;;;;;;;;;;4918266;28;20039;-72
2022/09/02 07:57:48;;;;;;;12.15;8.63;;;;;;;;;;4911121;28;20048;-72
2022/09/02 08:00:15;;;;;;;11.57;6.80;;;;;;;;;;4910684;28;20056;-73
2022/09/02 08:02:43;;;;;;;11.15;7.30;;;;;;;;;;4913456;28;20135;-72
2022/09/02 08:05:12;;;;;;;10.60;6.60;;;;;;;;;;4916106;28;20583;-73
2022/09/02 08:07:39;;;;;;;16.52;7.55;;;;;;;;;;4916677;28;20052;-72
2022/09/02 08:10:07;;;;;;;9.10;7.00;;;;;;;;;;4917303;28;20051;-72
2022/09/02 08:12:33;;;;;;;11.20;8.68;;;;;;;;;;4916728;28;20533;-73
2022/09/02 08:14:59;;;;;;;10.23;6.55;;;;;;;;;;4915125;28;20051;-72
2022/09/02 08:17:25;;;;;;;8.75;6.45;;;;;;;;;;4909815;28;20056;-75
2022/09/02 08:19:51;;;;;;;9.00;6.40;;;;;;;;;;4916936;28;20074;-72
2022/09/02 08:22:18;;;;;;;11.02;6.50;;;;;;;;;;4907612;28;20059;-72
2022/09/02 08:24:44;;;;;;;10.52;7.07;;;;;;;;;;4930731;28;20071;-72
2022/09/02 08:27:10;;;;;;;9.15;6.90;;;;;;;;;;4916632;28;20051;-72
2022/09/02 08:29:36;;;;;;;9.85;7.30;;;;;;;;;;4928322;28;20054;-73
2022/09/02 08:32:02;;;;;;;11.13;7.55;;;;;;;;;;4928255;28;20119;-73
2022/09/02 08:34:29;;;;;;;10.70;5.97;;;;;;;;;;4916496;28;20050;-72
2022/09/02 08:36:56;;;;;;;10.52;5.80;;;;;;;;;;4917965;28;20053;-72
2022/09/02 08:39:22;;;;;;;7.95;5.85;;;;;;;;;;4933631;28;20036;-74
2022/09/02 08:42:14;;;;;;;7.50;5.97;;;;;;;;;;4916770;28;20520;-73
2022/09/02 08:44:41;;;;;;;8.68;7.15;;;;;;;;;;4911465;28;20238;-73
2022/09/02 08:47:11;;;;;;;7.68;5.80;;;;;;;;;;4926728;28;20043;-73
2022/09/02 08:49:43;;;;;;;12.57;6.05;;;;;;;;;;4909242;28;20117;-72
2022/09/02 08:52:15;;;;;;;9.80;5.78;;;;;;;;;;4912016;28;20044;-72
2022/09/02 08:54:57;;;;;;;9.23;5.95;;;;;;;;;;4929783;28;20091;-73
2022/09/02 08:57:25;;;;;;;8.00;5.20;;;;;;;;;;4914683;28;20508;-73
2022/09/02 08:59:51;;;;;;;8.43;5.28;;;;;;;;;;4925958;28;20534;-72
2022/09/02 09:02:19;;;;;;;9.23;5.35;;;;;;;;;;4912889;28;20541;-72
2022/09/02 09:04:45;;;;;;;11.35;6.07;;;;;;;;;;4926823;28;20039;-73
2022/09/02 09:07:26;;;;;;;8.40;6.00;;;;;;;;;;4914624;28;21507;-73
2022/09/02 09:10:09;;;;;;;7.85;6.30;;;;;;;;;;4910536;28;20048;-73
2022/09/02 09:13:00;;;;;;;10.60;6.53;;;;;;;;;;4915851;28;20206;-73
2022/09/02 09:15:37;;;;;;;8.13;5.45;;;;;;;;;;4926922;28;20046;-80
2022/09/02 09:18:08;;;;;;;14.32;6.70;;;;;;;;;;4914230;28;20129;-74
2022/09/02 09:20:37;;;;;;;10.73;7.32;;;;;;;;;;4918400;28;20045;-73
2022/09/02 09:23:09;;;;;;;18.38;6.28;;;;;;;;;;4916476;28;20085;-73
2022/09/02 09:25:36;;;;;;;10.25;5.60;;;;;;;;;;4907916;28;20047;-73
2022/09/02 09:28:02;;;;;;;10.38;6.15;;;;;;;;;;4926739;28;20109;-73
2022/09/02 09:30:31;;;;;;;9.18;5.90;;;;;;;;;;4908575;28;21104;-76
2022/09/02 09:33:03;;;;;;;10.88;6.25;;;;;;;;;;4917103;28;20050;-74
2022/09/02 09:35:46;;;;;;;9.90;5.38;;;;;;;;;;4914172;28;20526;-72
2022/09/02 09:38:13;;;;;;;9.50;6.05;;;;;;;;;;4913486;28;20052;-73
2022/09/02 09:40:39;;;;;;;7.85;5.10;;;;;;;;;;4911581;28;20513;-72
2022/09/02 09:43:05;;;;;;;9.55;6.00;;;;;;;;;;4914102;28;20044;-72
2022/09/02 09:45:32;;;;;;;7.88;6.05;;;;;;;;;;4914598;28;20040;-72
2022/09/02 09:48:13;;;;;;;8.52;5.60;;;;;;;;;;4927043;28;20569;-77
2022/09/02 09:50:39;;;;;;;10.45;7.00;;;;;;;;;;4910239;28;20123;-72
2022/09/02 09:53:15;;;;;;;11.43;6.25;;;;;;;;;;4910287;28;20098;-73
2022/09/02 09:56:03;;;;;;;10.63;6.18;;;;;;;;;;4915303;28;20050;-72
2022/09/02 09:58:30;;;;;;;8.27;6.97;;;;;;;;;;4908665;28;20105;-73
2022/09/02 10:00:59;;;;;;;12.45;7.03;;;;;;;;;;4914216;28;20083;-74
2022/09/02 10:03:29;;;;;;;12.55;6.97;;;;;;;;;;4914226;28;20966;-73
2022/09/02 10:05:57;;;;;;;9.55;5.93;;;;;;;;;;4915525;28;20527;-72
2022/09/02 10:08:25;;;;;;;11.10;7.60;;;;;;;;;;4925462;28;20052;-73
2022/09/02 10:11:05;;;;;;;11.32;6.35;;;;;;;;;;4916737;28;20040;-73
2022/09/02 10:13:35;;;;;;;11.07;7.53;;;;;;;;;;4914646;28;20040;-73
2022/09/02 10:16:10;;;;;;;12.13;6.15;;;;;;;;;;4925476;28;20110;-73
2022/09/02 10:18:36;;;;;;;12.52;7.30;;;;;;;;;;4919047;28;20052;-73
2022/09/02 10:21:02;;;;;;;12.55;7.80;;;;;;;;;;4929713;28;20062;-73
2022/09/02 10:23:28;;;;;;;10.30;7.07;;;;;;;;;;4911095;28;20056;-74
2022/09/02 10:26:04;;;;;;;12.77;6.40;;;;;;;;;;4929895;28;20048;-73
2022/09/02 10:28:34;;;;;;;9.30;6.75;;;;;;;;;;4918100;28;20564;-73
2022/09/02 10:31:11;;;;;;;8.13;5.97;;;;;;;;;;4917253;28;20052;-73
2022/09/02 10:33:49;;;;;;;9.70;5.78;;;;;;;;;;4920664;28;20305;-79
2022/09/02 10:36:19;;;;;;;9.02;5.25;;;;;;;;;;4931549;28;20040;-72
2022/09/02 10:38:49;;;;;;;9.18;5.15;;;;;;;;;;4914150;28;20068;-73
2022/09/02 10:41:22;;;;;;;10.73;6.15;;;;;;;;;;4918367;28;21142;-72
2022/09/02 10:44:03;;;;;;;8.52;4.95;;;;;;;;;;4924480;28;20047;-78
2022/09/02 10:46:32;;;;;;;6.07;4.75;;;;;;;;;;4928186;28;20913;-72
2022/09/02 10:49:01;;;;;;;8.10;5.57;;;;;;;;;;4927933;28;20053;-72
2022/09/02 10:51:36;;;;;;;6.43;4.50;;;;;;;;;;4919847;28;20050;-72
2022/09/02 10:54:12;;;;;;;8.52;4.28;;;;;;;;;;4912491;28;20173;-73
2022/09/02 10:56:51;;;;;;;6.90;4.00;;;;;;;;;;4918819;28;20200;-73
2022/09/02 10:59:19;;;;;;;5.63;3.28;;;;;;;;;;4915445;28;20052;-71
2022/09/02 11:01:52;;;;;;;5.53;3.50;;;;;;;;;;4930473;28;20040;-71
2022/09/02 11:04:18;;;;;;;6.30;3.75;;;;;;;;;;4954266;28;20036;-72
2022/09/02 11:06:46;;;;;;;4.50;3.22;;;;;;;;;;4932561;28;20039;-72
2022/09/02 11:09:31;;;;;;;5.18;3.30;;;;;;;;;;4916698;28;20044;-72
2022/09/02 11:12:20;;;;;;;5.75;2.90;;;;;;;;;;4929925;28;20127;-71
2022/09/02 11:15:09;;;;;;;5.47;3.50;;;;;;;;;;4913374;28;20051;-72
2022/09/02 11:17:44;;;;;;;6.15;3.67;;;;;;;;;;4911073;28;20044;-72
2022/09/02 11:20:13;;;;;;;5.75;3.60;;;;;;;;;;4916280;28;20071;-72
2022/09/02 11:22:39;;;;;;;4.57;3.60;;;;;;;;;;4903666;28;20217;-73
2022/09/02 11:25:09;;;;;;;6.40;3.75;;;;;;;;;;4894535;28;20041;-72
2022/09/02 11:27:46;;;;;;;5.03;3.47;;;;;;;;;;4895659;28;20518;-72
2022/09/02 11:30:12;;;;;;;7.78;4.40;;;;;;;;;;4889654;28;20048;-72
2022/09/02 11:32:49;;;;;;;4.72;3.25;;;;;;;;;;4895080;28;20099;-72
2022/09/02 11:35:33;;;;;;;5.70;3.60;;;;;;;;;;4894907;28;20044;-71
2022/09/02 11:38:03;;;;;;;5.30;3.40;;;;;;;;;;4892369;28;20053;-72
2022/09/02 11:40:33;;;;;;;4.70;2.30;;;;;;;;;;4888964;28;20483;-75
2022/09/02 11:43:03;;;;;;;5.32;3.85;;;;;;;;;;4897426;28;20052;-74
2022/09/02 11:45:38;;;;;;;4.95;3.20;;;;;;;;;;4890698;28;20038;-72
2022/09/02 11:48:07;;;;;;;6.18;3.17;;;;;;;;;;4903475;28;20513;-71
2022/09/02 11:50:39;;;;;;;4.15;3.20;;;;;;;;;;4903417;28;20789;-72
2022/09/02 11:53:16;;;;;;;4.28;2.58;;;;;;;;;;4903814;28;20045;-72
2022/09/02 11:56:01;;;;;;;4.47;3.13;;;;;;;;;;4893786;28;20041;-85
2022/09/02 11:58:48;;;;;;;4.05;2.97;;;;;;;;;;4894555;28;20041;-73
2022/09/02 12:01:14;;;;;;;4.80;2.92;;;;;;;;;;4903460;28;20049;-73
2022/09/02 12:03:53;;;;;;;6.93;3.65;;;;;;;;;;4910394;28;20502;-74
2022/09/02 12:06:20;;;;;;;5.05;3.10;;;;;;;;;;4890037;28;20113;-73
2022/09/02 12:08:48;;;;;;;3.67;2.95;;;;;;;;;;4896532;28;20618;-74
2022/09/02 12:11:36;;;;;;;4.78;3.38;;;;;;;;;;4889093;28;20072;-73
2022/09/02 12:14:03;;;;;;;4.43;3.38;;;;;;;;;;4894631;28;20051;-73
2022/09/02 12:16:29;;;;;;;4.35;3.30;;;;;;;;;;4895962;28;20052;-73
2022/09/02 12:18:58;;;;;;;7.63;4.28;;;;;;;;;;4894882;28;20937;-73
2022/09/02 12:21:25;;;;;;;6.70;3.42;;;;;;;;;;4888955;28;20053;-72
2022/09/02 12:23:52;;;;;;;5.22;3.90;;;;;;;;;;4915275;28;20052;-73
2022/09/02 12:26:24;;;;;;;6.10;3.67;;;;;;;;;;4918257;28;20580;-73
2022/09/02 12:28:52;;;;;;;4.85;3.97;;;;;;;;;;4919672;28;20517;-73
2022/09/02 12:31:41;;;;;;;4.20;3.58;;;;;;;;;;4916737;28;20044;-73
2022/09/02 12:34:28;;;;;;;4.95;3.20;;;;;;;;;;4918416;28;20054;-73
2022/09/02 12:37:01;;;;;;;6.57;4.13;;;;;;;;;;4913189;28;20106;-73
2022/09/02 12:39:27;;;;;;;7.40;4.53;;;;;;;;;;4912315;28;20041;-73
2022/09/02 12:42:05;;;;;;;5.05;3.33;;;;;;;;;;4910378;28;20538;-73
2022/09/02 12:44:41;;;;;;;4.72;3.55;;;;;;;;;;4916935;28;20798;-73
2022/09/02 12:47:24;;;;;;;4.93;3.97;;;;;;;;;;4929076;28;20119;-73
2022/09/02 12:50:02;;;;;;;7.18;3.70;;;;;;;;;;4912088;28;20545;-74
2022/09/02 12:52:41;;;;;;;6.65;4.13;;;;;;;;;;4908506;28;20059;-73
2022/09/02 12:55:15;;;;;;;9.10;4.15;;;;;;;;;;4917605;28;20035;-73
2022/09/02 12:57:42;;;;;;;5.80;4.07;;;;;;;;;;4912776;28;20044;-73
2022/09/02 13:00:12;;;;;;;6.65;3.47;;;;;;;;;;4928090;28;20048;-73
2022/09/02 13:02:51;;;;;;;5.53;3.63;;;;;;;;;;4930989;28;20067;-72
2022/09/02 13:05:20;;;;;;;7.63;4.32;;;;;;;;;;4909905;28;20032;-73
2022/09/02 13:08:05;;;;;;;7.93;4.60;;;;;;;;;;4915011;28;20059;-74
2022/09/02 13:10:48;;;;;;;5.38;3.53;;;;;;;;;;4928145;28;20114;-73
2022/09/02 13:13:14;;;;;;;5.93;3.88;;;;;;;;;;4916894;28;20081;-73
2022/09/02 13:15:59;;;;;;;5.25;3.92;;;;;;;;;;4917191;28;20055;-73
2022/09/02 13:18:54;;;;;;;5.30;4.55;;;;;;;;;;4915251;28;20044;-73
2022/09/02 13:21:23;;;;;;;7.15;4.20;;;;;;;;;;4926240;28;20191;-73
2022/09/02 13:23:55;;;;;;;6.20;3.45;;;;;;;;;;4928559;28;20064;-74
2022/09/02 13:26:25;;;;;;;9.30;4.60;;;;;;;;;;4915242;28;20032;-73
2022/09/02 13:29:11;;;;;;;4.97;4.05;;;;;;;;;;4929372;28;20051;-74
2022/09/02 13:31:37;;;;;;;8.27;4.25;;;;;;;;;;4912735;28;21020;-73
2022/09/02 13:34:05;;;;;;;9.95;4.80;;;;;;;;;;4915177;28;20052;-73
2022/09/02 13:36:36;;;;;;;6.85;4.03;;;;;;;;;;4916145;28;20091;-73
2022/09/02 13:39:17;;;;;;;4.65;3.50;;;;;;;;;;4918924;28;20047;-73
2022/09/02 13:41:43;;;;;;;5.68;3.63;;;;;;;;;;4916052;28;20040;-73
2022/09/02 13:44:19;;;;;;;8.02;3.67;;;;;;;;;;4909553;28;20074;-73
2022/09/02 13:46:47;;;;;;;5.95;4.50;;;;;;;;;;4915506;28;20043;-73
2022/09/02 13:49:21;;;;;;;5.07;3.72;;;;;;;;;;4916889;28;20040;-73
2022/09/02 13:51:50;;;;;;;6.65;4.60;;;;;;;;;;4916299;28;20098;-73
2022/09/02 13:54:21;;;;;;;5.28;3.90;;;;;;;;;;4930537;28;20063;-73
2022/09/02 13:56:48;;;;;;;5.65;4.03;;;;;;;;;;4922012;28;20079;-73
2022/09/02 13:59:30;;;;;;;6.47;4.32;;;;;;;;;;4920911;28;20048;-72
2022/09/02 14:01:56;;;;;;;;;;;;;;;;;;4914621;28;20042;-73
2022/09/02 14:04:22;;;;;;;5.85;3.53;;;;;;;;;;4918508;28;19927;-73
2022/09/02 14:06:49;;;;;;;5.90;3.85;;;;;;;;;;4919311;28;20040;-73
2022/09/02 14:09:20;;;;;;;5.25;3.38;;;;;;;;;;4921201;28;21256;-73
2022/09/02 14:11:47;;;;;;;4.43;3.40;;;;;;;;;;4932988;28;20066;-73
2022/09/02 14:14:14;;;;;;;6.70;3.83;;;;;;;;;;4922784;28;20147;-73
2022/09/02 14:16:41;;;;;;;6.85;3.72;;;;;;;;;;4918077;28;20044;-72
2022/09/02 14:19:09;;;;;;;4.88;3.83;;;;;;;;;;4912218;28;20047;-74
2022/09/02 14:21:36;;;;;;;6.15;4.15;;;;;;;;;;4918181;28;20048;-73
2022/09/02 14:24:02;;;;;;;7.75;4.57;;;;;;;;;;4922510;28;20063;-73
2022/09/02 14:26:32;;;;;;;5.97;3.90;;;;;;;;;;4913063;28;20538;-73
2022/09/02 14:28:58;;;;;;;5.93;4.32;;;;;;;;;;4918998;28;20497;-73
2022/09/02 14:31:28;;;;;;;7.78;4.72;;;;;;;;;;4909404;28;20083;-73
2022/09/02 14:33:54;;;;;;;6.85;3.92;;;;;;;;;;4917543;28;20480;-73
2022/09/02 14:36:20;;;;;;;7.63;4.47;;;;;;;;;;4929589;28;20040;-73
2022/09/02 14:38:46;;;;;;;10.90;4.30;;;;;;;;;;4911309;28;20044;-74
2022/09/02 14:41:18;;;;;;;6.25;4.15;;;;;;;;;;4916710;28;20044;-73
2022/09/02 14:43:44;;;;;;;;;;;;;;;;;;4919038;28;20048;-74
2022/09/02 14:46:14;;;;;;;6.60;4.03;;;;;;;;;;4928200;28;20313;-74
2022/09/02 14:48:41;;;;;;;6.72;4.53;;;;;;;;;;4935255;28;20190;-77
2022/09/02 14:51:07;;;;;;;5.90;4.32;;;;;;;;;;4930073;28;20043;-74
2022/09/02 14:53:36;;;;;;;8.95;4.63;;;;;;;;;;4915846;28;20091;-73